sensor_id;sensor_type;location;lat;lon;timestamp;P1;durP1;ratioP1;P2;durP2;ratioP2
47762;SDS011;33526;42.690;23.322;2023-03-01T00:32:55;9.82;;;6.30;;
47762;SDS011;33526;42.690;23.322;2023-03-01T00:35:20;11.75;;;7.78;;
47762;SDS011;33526;42.690;23.322;2023-03-01T00:37:47;17.08;;;9.10;;
47762;SDS011;33526;42.690;23.322;2023-03-01T00:40:18;18.40;;;10.73;;
47762;SDS011;33526;42.690;23.322;2023-03-01T00:42:44;19.52;;;9.95;;
47762;SDS011;33526;42.690;23.322;2023-03-01T00:45:12;18.25;;;8.60;;
47762;SDS011;33526;42.690;23.322;2023-03-01T00:47:38;15.10;;;7.10;;
47762;SDS011;33526;42.690;23.322;2023-03-01T00:50:04;15.02;;;6.38;;
47762;SDS011;33526;42.690;23.322;2023-03-01T00:52:30;11.48;;;5.63;;
47762;SDS011;33526;42.690;23.322;2023-03-01T00:54:56;12.23;;;5.63;;
47762;SDS011;33526;42.690;23.322;2023-03-01T00:57:23;7.32;;;4.45;;
47762;SDS011;33526;42.690;23.322;2023-03-01T00:59:49;6.67;;;4.20;;
47762;SDS011;33526;42.690;23.322;2023-03-01T01:02:17;5.78;;;3.05;;
47762;SDS011;33526;42.690;23.322;2023-03-01T01:04:44;6.05;;;3.42;;
47762;SDS011;33526;42.690;23.322;2023-03-01T01:07:11;4.50;;;2.85;;
47762;SDS011;33526;42.690;23.322;2023-03-01T01:09:37;3.58;;;2.70;;
47762;SDS011;33526;42.690;23.322;2023-03-01T01:12:03;6.20;;;3.20;;
47762;SDS011;33526;42.690;23.322;2023-03-01T01:14:29;6.50;;;3.05;;
47762;SDS011;33526;42.690;23.322;2023-03-01T01:16:55;4.05;;;2.67;;
47762;SDS011;33526;42.690;23.322;2023-03-01T01:19:21;5.95;;;3.47;;
47762;SDS011;33526;42.690;23.322;2023-03-01T01:21:47;3.58;;;2.63;;
47762;SDS011;33526;42.690;23.322;2023-03-01T01:24:13;9.10;;;3.03;;
47762;SDS011;33526;42.690;23.322;2023-03-01T01:26:39;4.70;;;2.88;;
47762;SDS011;33526;42.690;23.322;2023-03-01T01:29:05;4.50;;;2.92;;
47762;SDS011;33526;42.690;23.322;2023-03-01T01:31:32;3.97;;;2.60;;
47762;SDS011;33526;42.690;23.322;2023-03-01T01:33:59;5.25;;;2.97;;
47762;SDS011;33526;42.690;23.322;2023-03-01T01:36:26;4.68;;;2.95;;
47762;SDS011;33526;42.690;23.322;2023-03-01T01:38:54;3.20;;;2.28;;
47762;SDS011;33526;42.690;23.322;2023-03-01T01:41:21;3.78;;;2.53;;
47762;SDS011;33526;42.690;23.322;2023-03-01T01:44:09;4.60;;;2.83;;
47762;SDS011;33526;42.690;23.322;2023-03-01T01:46:43;2.90;;;2.35;;
47762;SDS011;33526;42.690;23.322;2023-03-01T01:49:54;5.13;;;3.20;;
47762;SDS011;33526;42.690;23.322;2023-03-01T01:52:10;2.78;;;1.90;;
47762;SDS011;33526;42.690;23.322;2023-03-01T01:57:08;2.25;;;1.85;;
47762;SDS011;33526;42.690;23.322;2023-03-01T01:59:37;2.55;;;1.67;;
47762;SDS011;33526;42.690;23.322;2023-03-01T02:02:05;1.92;;;1.55;;
47762;SDS011;33526;42.690;23.322;2023-03-01T02:04:31;3.92;;;1.80;;
47762;SDS011;33526;42.690;23.322;2023-03-01T02:06:59;4.93;;;1.70;;
47762;SDS011;33526;42.690;23.322;2023-03-01T02:09:28;1.60;;;1.50;;
47762;SDS011;33526;42.690;23.322;2023-03-01T02:11:56;1.60;;;1.50;;
47762;SDS011;33526;42.690;23.322;2023-03-01T02:14:22;2.60;;;1.90;;
47762;SDS011;33526;42.690;23.322;2023-03-01T02:16:48;2.60;;;2.40;;
47762;SDS011;33526;42.690;23.322;2023-03-01T02:22:16;2.53;;;2.05;;
47762;SDS011;33526;42.690;23.322;2023-03-01T02:27:29;2.15;;;1.73;;
47762;SDS011;33526;42.690;23.322;2023-03-01T02:30:03;2.28;;;1.75;;
47762;SDS011;33526;42.690;23.322;2023-03-01T02:32:29;2.58;;;2.13;;
47762;SDS011;33526;42.690;23.322;2023-03-01T02:34:55;2.55;;;2.15;;
47762;SDS011;33526;42.690;23.322;2023-03-01T02:37:21;1.75;;;1.55;;
47762;SDS011;33526;42.690;23.322;2023-03-01T02:39:57;3.15;;;1.70;;
47762;SDS011;33526;42.690;23.322;2023-03-01T02:42:30;2.38;;;2.00;;
47762;SDS011;33526;42.690;23.322;2023-03-01T02:45:00;2.33;;;1.92;;
47762;SDS011;33526;42.690;23.322;2023-03-01T02:47:25;2.53;;;2.22;;
47762;SDS011;33526;42.690;23.322;2023-03-01T02:49:51;2.10;;;1.90;;
47762;SDS011;33526;42.690;23.322;2023-03-01T02:55:11;3.70;;;1.98;;
47762;SDS011;33526;42.690;23.322;2023-03-01T02:57:40;2.85;;;2.35;;
47762;SDS011;33526;42.690;23.322;2023-03-01T03:00:09;2.33;;;1.95;;
47762;SDS011;33526;42.690;23.322;2023-03-01T03:02:44;3.60;;;2.13;;
47762;SDS011;33526;42.690;23.322;2023-03-01T03:05:13;3.28;;;2.33;;
47762;SDS011;33526;42.690;23.322;2023-03-01T03:07:43;2.78;;;2.28;;
47762;SDS011;33526;42.690;23.322;2023-03-01T03:10:14;3.15;;;2.28;;
47762;SDS011;33526;42.690;23.322;2023-03-01T03:12:44;5.78;;;2.75;;
47762;SDS011;33526;42.690;23.322;2023-03-01T03:15:14;3.95;;;2.45;;
47762;SDS011;33526;42.690;23.322;2023-03-01T03:17:41;2.78;;;2.13;;
47762;SDS011;33526;42.690;23.322;2023-03-01T03:20:08;2.85;;;2.10;;
47762;SDS011;33526;42.690;23.322;2023-03-01T03:22:38;3.65;;;2.40;;
47762;SDS011;33526;42.690;23.322;2023-03-01T03:25:05;3.08;;;2.65;;
47762;SDS011;33526;42.690;23.322;2023-03-01T03:27:37;5.20;;;3.25;;
47762;SDS011;33526;42.690;23.322;2023-03-01T03:30:04;4.03;;;2.80;;
47762;SDS011;33526;42.690;23.322;2023-03-01T03:32:37;3.55;;;2.80;;
47762;SDS011;33526;42.690;23.322;2023-03-01T03:35:04;2.97;;;2.50;;
47762;SDS011;33526;42.690;23.322;2023-03-01T03:37:40;3.65;;;2.20;;
47762;SDS011;33526;42.690;23.322;2023-03-01T03:40:26;4.45;;;2.63;;
47762;SDS011;33526;42.690;23.322;2023-03-01T03:42:53;5.63;;;2.50;;
47762;SDS011;33526;42.690;23.322;2023-03-01T03:48:23;3.63;;;2.78;;
47762;SDS011;33526;42.690;23.322;2023-03-01T03:50:49;4.97;;;3.03;;
47762;SDS011;33526;42.690;23.322;2023-03-01T03:53:17;4.75;;;3.17;;
47762;SDS011;33526;42.690;23.322;2023-03-01T03:55:44;4.82;;;3.15;;
47762;SDS011;33526;42.690;23.322;2023-03-01T03:58:09;6.25;;;3.17;;
47762;SDS011;33526;42.690;23.322;2023-03-01T04:00:43;8.48;;;2.88;;
47762;SDS011;33526;42.690;23.322;2023-03-01T04:03:09;6.18;;;3.72;;
47762;SDS011;33526;42.690;23.322;2023-03-01T04:05:36;6.07;;;3.67;;
47762;SDS011;33526;42.690;23.322;2023-03-01T04:08:02;4.75;;;3.22;;
47762;SDS011;33526;42.690;23.322;2023-03-01T04:10:38;4.88;;;3.70;;
47762;SDS011;33526;42.690;23.322;2023-03-01T04:13:06;4.43;;;3.35;;
47762;SDS011;33526;42.690;23.322;2023-03-01T04:15:35;3.92;;;2.78;;
47762;SDS011;33526;42.690;23.322;2023-03-01T04:18:01;4.32;;;3.30;;
47762;SDS011;33526;42.690;23.322;2023-03-01T04:20:28;4.47;;;2.90;;
47762;SDS011;33526;42.690;23.322;2023-03-01T04:22:59;3.97;;;2.90;;
47762;SDS011;33526;42.690;23.322;2023-03-01T04:25:42;4.30;;;2.58;;
47762;SDS011;33526;42.690;23.322;2023-03-01T04:28:27;3.33;;;2.53;;
47762;SDS011;33526;42.690;23.322;2023-03-01T04:30:55;3.65;;;2.75;;
47762;SDS011;33526;42.690;23.322;2023-03-01T04:33:49;3.53;;;2.80;;
47762;SDS011;33526;42.690;23.322;2023-03-01T04:36:17;4.63;;;2.85;;
47762;SDS011;33526;42.690;23.322;2023-03-01T04:38:43;3.60;;;2.50;;
47762;SDS011;33526;42.690;23.322;2023-03-01T04:41:13;4.35;;;2.78;;
47762;SDS011;33526;42.690;23.322;2023-03-01T04:43:39;4.05;;;2.50;;
47762;SDS011;33526;42.690;23.322;2023-03-01T04:46:09;3.30;;;2.50;;
47762;SDS011;33526;42.690;23.322;2023-03-01T04:48:37;5.47;;;3.22;;
47762;SDS011;33526;42.690;23.322;2023-03-01T04:53:30;3.75;;;2.55;;
47762;SDS011;33526;42.690;23.322;2023-03-01T04:55:57;4.85;;;2.83;;
47762;SDS011;33526;42.690;23.322;2023-03-01T04:58:24;5.07;;;2.90;;
47762;SDS011;33526;42.690;23.322;2023-03-01T05:00:53;4.95;;;2.85;;
47762;SDS011;33526;42.690;23.322;2023-03-01T05:03:20;5.53;;;3.25;;
47762;SDS011;33526;42.690;23.322;2023-03-01T05:05:46;5.85;;;3.17;;
47762;SDS011;33526;42.690;23.322;2023-03-01T05:08:15;5.85;;;3.45;;
47762;SDS011;33526;42.690;23.322;2023-03-01T05:10:45;6.32;;;3.58;;
47762;SDS011;33526;42.690;23.322;2023-03-01T05:13:13;5.78;;;3.53;;
47762;SDS011;33526;42.690;23.322;2023-03-01T05:15:46;6.20;;;3.83;;
47762;SDS011;33526;42.690;23.322;2023-03-01T05:18:24;9.85;;;4.05;;
47762;SDS011;33526;42.690;23.322;2023-03-01T05:20:54;9.48;;;3.80;;
47762;SDS011;33526;42.690;23.322;2023-03-01T05:23:23;3.95;;;3.00;;
47762;SDS011;33526;42.690;23.322;2023-03-01T05:25:49;7.18;;;4.05;;
47762;SDS011;33526;42.690;23.322;2023-03-01T05:28:17;6.63;;;4.05;;
47762;SDS011;33526;42.690;23.322;2023-03-01T05:30:44;7.13;;;4.10;;
47762;SDS011;33526;42.690;23.322;2023-03-01T05:33:10;8.50;;;4.43;;
47762;SDS011;33526;42.690;23.322;2023-03-01T05:35:41;7.40;;;5.25;;
47762;SDS011;33526;42.690;23.322;2023-03-01T05:38:09;9.35;;;4.72;;
47762;SDS011;33526;42.690;23.322;2023-03-01T05:40:39;8.80;;;4.38;;
47762;SDS011;33526;42.690;23.322;2023-03-01T05:43:06;9.35;;;4.93;;
47762;SDS011;33526;42.690;23.322;2023-03-01T05:45:32;7.53;;;4.43;;
47762;SDS011;33526;42.690;23.322;2023-03-01T05:47:57;8.65;;;4.82;;
47762;SDS011;33526;42.690;23.322;2023-03-01T05:50:26;8.90;;;4.80;;
47762;SDS011;33526;42.690;23.322;2023-03-01T05:53:00;10.20;;;5.28;;
47762;SDS011;33526;42.690;23.322;2023-03-01T05:55:33;6.88;;;4.15;;
47762;SDS011;33526;42.690;23.322;2023-03-01T05:58:00;6.72;;;4.40;;
47762;SDS011;33526;42.690;23.322;2023-03-01T06:00:28;10.65;;;5.38;;
47762;SDS011;33526;42.690;23.322;2023-03-01T06:02:55;8.35;;;5.65;;
47762;SDS011;33526;42.690;23.322;2023-03-01T06:05:21;6.15;;;4.28;;
47762;SDS011;33526;42.690;23.322;2023-03-01T06:07:47;6.43;;;3.60;;
47762;SDS011;33526;42.690;23.322;2023-03-01T06:10:13;6.82;;;4.40;;
47762;SDS011;33526;42.690;23.322;2023-03-01T06:12:40;7.53;;;3.72;;
47762;SDS011;33526;42.690;23.322;2023-03-01T06:15:07;10.68;;;4.10;;
47762;SDS011;33526;42.690;23.322;2023-03-01T06:17:35;6.32;;;3.97;;
47762;SDS011;33526;42.690;23.322;2023-03-01T06:20:10;4.35;;;3.10;;
47762;SDS011;33526;42.690;23.322;2023-03-01T06:22:38;7.47;;;3.75;;
47762;SDS011;33526;42.690;23.322;2023-03-01T06:25:04;10.50;;;3.67;;
47762;SDS011;33526;42.690;23.322;2023-03-01T06:27:30;5.43;;;3.25;;
47762;SDS011;33526;42.690;23.322;2023-03-01T06:29:56;12.82;;;3.63;;
47762;SDS011;33526;42.690;23.322;2023-03-01T06:32:22;5.78;;;4.00;;
47762;SDS011;33526;42.690;23.322;2023-03-01T06:34:47;8.13;;;3.95;;
47762;SDS011;33526;42.690;23.322;2023-03-01T06:37:12;4.32;;;3.13;;
47762;SDS011;33526;42.690;23.322;2023-03-01T06:39:38;10.68;;;4.22;;
47762;SDS011;33526;42.690;23.322;2023-03-01T06:42:04;4.97;;;3.17;;
47762;SDS011;33526;42.690;23.322;2023-03-01T06:44:29;5.40;;;2.83;;
47762;SDS011;33526;42.690;23.322;2023-03-01T06:46:56;7.28;;;3.30;;
47762;SDS011;33526;42.690;23.322;2023-03-01T06:49:21;6.82;;;2.72;;
47762;SDS011;33526;42.690;23.322;2023-03-01T06:51:47;5.72;;;2.50;;
47762;SDS011;33526;42.690;23.322;2023-03-01T06:54:12;7.78;;;3.45;;
47762;SDS011;33526;42.690;23.322;2023-03-01T06:56:38;5.70;;;2.92;;
47762;SDS011;33526;42.690;23.322;2023-03-01T06:59:03;6.22;;;3.55;;
47762;SDS011;33526;42.690;23.322;2023-03-01T07:01:30;3.58;;;2.25;;
47762;SDS011;33526;42.690;23.322;2023-03-01T07:03:56;5.60;;;3.28;;
47762;SDS011;33526;42.690;23.322;2023-03-01T07:06:22;4.47;;;2.75;;
47762;SDS011;33526;42.690;23.322;2023-03-01T07:08:47;5.72;;;3.10;;
47762;SDS011;33526;42.690;23.322;2023-03-01T07:11:13;3.88;;;2.92;;
47762;SDS011;33526;42.690;23.322;2023-03-01T07:13:39;4.25;;;2.67;;
47762;SDS011;33526;42.690;23.322;2023-03-01T07:16:04;4.43;;;2.78;;
47762;SDS011;33526;42.690;23.322;2023-03-01T07:18:30;4.22;;;2.50;;
47762;SDS011;33526;42.690;23.322;2023-03-01T07:20:55;5.25;;;2.70;;
47762;SDS011;33526;42.690;23.322;2023-03-01T07:23:21;5.93;;;3.05;;
47762;SDS011;33526;42.690;23.322;2023-03-01T07:25:53;3.13;;;2.10;;
47762;SDS011;33526;42.690;23.322;2023-03-01T07:28:19;4.03;;;2.70;;
47762;SDS011;33526;42.690;23.322;2023-03-01T07:30:45;7.90;;;2.63;;
47762;SDS011;33526;42.690;23.322;2023-03-01T07:33:11;5.45;;;2.53;;
47762;SDS011;33526;42.690;23.322;2023-03-01T07:35:39;5.05;;;2.35;;
47762;SDS011;33526;42.690;23.322;2023-03-01T07:38:04;4.90;;;2.80;;
47762;SDS011;33526;42.690;23.322;2023-03-01T07:40:30;7.55;;;4.45;;
47762;SDS011;33526;42.690;23.322;2023-03-01T07:42:56;3.95;;;2.55;;
47762;SDS011;33526;42.690;23.322;2023-03-01T07:47:49;5.07;;;2.10;;
47762;SDS011;33526;42.690;23.322;2023-03-01T07:50:16;4.43;;;2.80;;
47762;SDS011;33526;42.690;23.322;2023-03-01T07:52:41;5.15;;;2.20;;
47762;SDS011;33526;42.690;23.322;2023-03-01T08:42:38;5.10;;;2.28;;
47762;SDS011;33526;42.690;23.322;2023-03-01T08:50:45;7.47;;;2.35;;
47762;SDS011;33526;42.690;23.322;2023-03-01T09:02:27;4.90;;;2.65;;
47762;SDS011;33526;42.690;23.322;2023-03-01T09:05:13;7.38;;;2.90;;
47762;SDS011;33526;42.690;23.322;2023-03-01T09:07:49;5.22;;;2.80;;
47762;SDS011;33526;42.690;23.322;2023-03-01T09:10:42;4.38;;;3.03;;
47762;SDS011;33526;42.690;23.322;2023-03-01T14:33:34;8.95;;;3.13;;
47762;SDS011;33526;42.690;23.322;2023-03-01T14:57:36;5.45;;;2.83;;
47762;SDS011;33526;42.690;23.322;2023-03-01T15:00:06;12.40;;;6.20;;
47762;SDS011;33526;42.690;23.322;2023-03-01T15:03:08;11.20;;;5.32;;
47762;SDS011;33526;42.690;23.322;2023-03-01T16:17:11;8.02;;;3.08;;
47762;SDS011;33526;42.690;23.322;2023-03-01T16:19:40;6.60;;;3.78;;
47762;SDS011;33526;42.690;23.322;2023-03-01T16:22:13;14.32;;;5.78;;
47762;SDS011;33526;42.690;23.322;2023-03-01T16:24:39;13.07;;;5.28;;
47762;SDS011;33526;42.690;23.322;2023-03-01T16:27:06;8.20;;;4.43;;
47762;SDS011;33526;42.690;23.322;2023-03-01T16:29:35;10.18;;;4.40;;
47762;SDS011;33526;42.690;23.322;2023-03-01T16:32:08;7.32;;;3.60;;
47762;SDS011;33526;42.690;23.322;2023-03-01T16:34:41;10.70;;;3.80;;
47762;SDS011;33526;42.690;23.322;2023-03-01T16:37:31;8.57;;;3.95;;
47762;SDS011;33526;42.690;23.322;2023-03-01T16:40:19;12.80;;;4.63;;
47762;SDS011;33526;42.690;23.322;2023-03-01T16:42:51;13.88;;;5.30;;
47762;SDS011;33526;42.690;23.322;2023-03-01T16:45:23;13.38;;;5.15;;
47762;SDS011;33526;42.690;23.322;2023-03-01T16:48:02;11.90;;;5.78;;
47762;SDS011;33526;42.690;23.322;2023-03-01T16:50:36;13.52;;;5.38;;
47762;SDS011;33526;42.690;23.322;2023-03-01T16:53:09;18.50;;;7.78;;
47762;SDS011;33526;42.690;23.322;2023-03-01T16:55:45;15.75;;;5.82;;
47762;SDS011;33526;42.690;23.322;2023-03-01T16:58:21;16.00;;;7.18;;
47762;SDS011;33526;42.690;23.322;2023-03-01T17:01:01;62.67;;;27.52;;
47762;SDS011;33526;42.690;23.322;2023-03-01T17:03:30;13.23;;;5.55;;
47762;SDS011;33526;42.690;23.322;2023-03-01T17:06:11;21.50;;;8.20;;
47762;SDS011;33526;42.690;23.322;2023-03-01T17:08:45;20.17;;;9.13;;
47762;SDS011;33526;42.690;23.322;2023-03-01T17:11:31;12.55;;;5.07;;
47762;SDS011;33526;42.690;23.322;2023-03-01T17:14:03;15.55;;;7.60;;
47762;SDS011;33526;42.690;23.322;2023-03-01T17:16:29;20.10;;;10.30;;
47762;SDS011;33526;42.690;23.322;2023-03-01T17:18:55;10.48;;;5.63;;
47762;SDS011;33526;42.690;23.322;2023-03-01T17:21:24;13.23;;;6.25;;
47762;SDS011;33526;42.690;23.322;2023-03-01T17:23:56;13.50;;;7.63;;
47762;SDS011;33526;42.690;23.322;2023-03-01T17:26:22;24.13;;;13.05;;
47762;SDS011;33526;42.690;23.322;2023-03-01T17:28:48;14.75;;;7.28;;
47762;SDS011;33526;42.690;23.322;2023-03-01T17:31:16;20.38;;;8.95;;
47762;SDS011;33526;42.690;23.322;2023-03-01T17:34:03;17.20;;;7.70;;
47762;SDS011;33526;42.690;23.322;2023-03-01T17:36:33;17.58;;;9.75;;
47762;SDS011;33526;42.690;23.322;2023-03-01T17:39:05;18.10;;;7.90;;
47762;SDS011;33526;42.690;23.322;2023-03-01T17:41:51;18.92;;;8.45;;
47762;SDS011;33526;42.690;23.322;2023-03-01T17:44:23;18.02;;;8.68;;
47762;SDS011;33526;42.690;23.322;2023-03-01T17:46:51;16.52;;;9.32;;
47762;SDS011;33526;42.690;23.322;2023-03-01T17:49:27;19.15;;;9.70;;
47762;SDS011;33526;42.690;23.322;2023-03-01T17:54:44;18.00;;;9.43;;
47762;SDS011;33526;42.690;23.322;2023-03-01T18:00:06;16.38;;;9.35;;
47762;SDS011;33526;42.690;23.322;2023-03-01T18:03:05;22.02;;;10.57;;
47762;SDS011;33526;42.690;23.322;2023-03-01T18:18:55;25.38;;;13.07;;
47762;SDS011;33526;42.690;23.322;2023-03-01T18:21:50;21.13;;;10.63;;
47762;SDS011;33526;42.690;23.322;2023-03-01T18:25:01;37.63;;;18.92;;
47762;SDS011;33526;42.690;23.322;2023-03-01T18:27:32;24.55;;;12.02;;
47762;SDS011;33526;42.690;23.322;2023-03-01T18:30:13;18.58;;;10.55;;
47762;SDS011;33526;42.690;23.322;2023-03-01T18:32:50;19.50;;;11.48;;
47762;SDS011;33526;42.690;23.322;2023-03-01T18:43:08;20.63;;;10.55;;
47762;SDS011;33526;42.690;23.322;2023-03-01T18:53:19;37.28;;;19.95;;
47762;SDS011;33526;42.690;23.322;2023-03-01T18:55:46;18.88;;;10.98;;
47762;SDS011;33526;42.690;23.322;2023-03-01T18:58:12;16.60;;;10.02;;
47762;SDS011;33526;42.690;23.322;2023-03-01T19:00:40;19.20;;;10.80;;
47762;SDS011;33526;42.690;23.322;2023-03-01T19:03:08;25.35;;;10.93;;
47762;SDS011;33526;42.690;23.322;2023-03-01T19:05:35;23.83;;;13.35;;
47762;SDS011;33526;42.690;23.322;2023-03-01T19:08:13;20.90;;;10.90;;
47762;SDS011;33526;42.690;23.322;2023-03-01T19:10:59;15.90;;;10.15;;
47762;SDS011;33526;42.690;23.322;2023-03-01T19:19:03;21.83;;;11.27;;
47762;SDS011;33526;42.690;23.322;2023-03-01T19:21:59;21.60;;;10.88;;
47762;SDS011;33526;42.690;23.322;2023-03-01T19:33:40;35.88;;;17.85;;
47762;SDS011;33526;42.690;23.322;2023-03-01T19:36:06;19.70;;;10.80;;
47762;SDS011;33526;42.690;23.322;2023-03-01T19:38:42;23.70;;;12.60;;
47762;SDS011;33526;42.690;23.322;2023-03-01T19:47:57;20.08;;;11.23;;
47762;SDS011;33526;42.690;23.322;2023-03-01T19:51:12;17.40;;;10.63;;
47762;SDS011;33526;42.690;23.322;2023-03-01T19:54:23;19.75;;;11.93;;
47762;SDS011;33526;42.690;23.322;2023-03-01T20:06:51;38.13;;;19.00;;
47762;SDS011;33526;42.690;23.322;2023-03-01T20:12:31;22.33;;;12.40;;
47762;SDS011;33526;42.690;23.322;2023-03-01T20:15:14;33.22;;;17.02;;
47762;SDS011;33526;42.690;23.322;2023-03-01T20:23:49;27.90;;;12.25;;
47762;SDS011;33526;42.690;23.322;2023-03-01T20:29:05;25.88;;;13.90;;
47762;SDS011;33526;42.690;23.322;2023-03-01T20:32:09;23.77;;;12.57;;
47762;SDS011;33526;42.690;23.322;2023-03-01T20:34:45;23.70;;;13.18;;
47762;SDS011;33526;42.690;23.322;2023-03-01T20:37:35;20.40;;;11.85;;
47762;SDS011;33526;42.690;23.322;2023-03-01T20:40:10;21.63;;;11.70;;
47762;SDS011;33526;42.690;23.322;2023-03-01T20:43:03;26.58;;;13.85;;
47762;SDS011;33526;42.690;23.322;2023-03-01T20:45:48;27.58;;;13.18;;
47762;SDS011;33526;42.690;23.322;2023-03-01T20:52:31;28.75;;;13.82;;
47762;SDS011;33526;42.690;23.322;2023-03-01T20:55:11;22.52;;;12.27;;
47762;SDS011;33526;42.690;23.322;2023-03-01T20:57:55;20.08;;;11.43;;
47762;SDS011;33526;42.690;23.322;2023-03-01T21:00:44;20.13;;;11.18;;
47762;SDS011;33526;42.690;23.322;2023-03-01T21:03:11;19.40;;;10.90;;
47762;SDS011;33526;42.690;23.322;2023-03-01T21:05:41;49.75;;;23.95;;
47762;SDS011;33526;42.690;23.322;2023-03-01T21:08:10;24.75;;;13.75;;
47762;SDS011;33526;42.690;23.322;2023-03-01T21:10:35;25.63;;;12.52;;
47762;SDS011;33526;42.690;23.322;2023-03-01T21:13:08;38.58;;;16.80;;
47762;SDS011;33526;42.690;23.322;2023-03-01T21:15:35;21.58;;;11.35;;
47762;SDS011;33526;42.690;23.322;2023-03-01T21:18:01;20.88;;;11.00;;
47762;SDS011;33526;42.690;23.322;2023-03-01T21:20:26;18.02;;;11.38;;
47762;SDS011;33526;42.690;23.322;2023-03-01T21:22:51;23.02;;;12.23;;
47762;SDS011;33526;42.690;23.322;2023-03-01T21:25:18;20.30;;;12.05;;
47762;SDS011;33526;42.690;23.322;2023-03-01T21:27:44;21.45;;;12.00;;
47762;SDS011;33526;42.690;23.322;2023-03-01T21:30:10;26.25;;;12.55;;
47762;SDS011;33526;42.690;23.322;2023-03-01T21:32:37;29.83;;;13.82;;
47762;SDS011;33526;42.690;23.322;2023-03-01T21:35:04;22.98;;;12.07;;
47762;SDS011;33526;42.690;23.322;2023-03-01T21:37:29;27.13;;;13.43;;
47762;SDS011;33526;42.690;23.322;2023-03-01T21:39:56;16.98;;;10.38;;
47762;SDS011;33526;42.690;23.322;2023-03-01T21:42:22;25.00;;;12.70;;
47762;SDS011;33526;42.690;23.322;2023-03-01T21:44:48;22.40;;;11.98;;
47762;SDS011;33526;42.690;23.322;2023-03-01T21:47:14;21.05;;;10.38;;
47762;SDS011;33526;42.690;23.322;2023-03-01T21:49:39;24.73;;;12.57;;
47762;SDS011;33526;42.690;23.322;2023-03-01T21:52:06;17.25;;;10.02;;
47762;SDS011;33526;42.690;23.322;2023-03-01T21:54:31;16.63;;;9.88;;
47762;SDS011;33526;42.690;23.322;2023-03-01T21:56:57;15.63;;;9.23;;
47762;SDS011;33526;42.690;23.322;2023-03-01T21:59:22;21.88;;;11.50;;
47762;SDS011;33526;42.690;23.322;2023-03-01T22:01:49;21.05;;;10.90;;
47762;SDS011;33526;42.690;23.322;2023-03-01T22:04:16;18.13;;;9.40;;
47762;SDS011;33526;42.690;23.322;2023-03-01T22:06:47;24.98;;;9.43;;
47762;SDS011;33526;42.690;23.322;2023-03-01T22:09:17;17.35;;;9.05;;
47762;SDS011;33526;42.690;23.322;2023-03-01T22:11:48;12.70;;;7.53;;
47762;SDS011;33526;42.690;23.322;2023-03-01T22:14:27;18.52;;;10.50;;
47762;SDS011;33526;42.690;23.322;2023-03-01T22:16:54;12.65;;;7.50;;
47762;SDS011;33526;42.690;23.322;2023-03-01T22:19:19;13.93;;;8.00;;
47762;SDS011;33526;42.690;23.322;2023-03-01T22:21:46;11.85;;;6.65;;
47762;SDS011;33526;42.690;23.322;2023-03-01T22:24:13;12.88;;;7.03;;
47762;SDS011;33526;42.690;23.322;2023-03-01T22:26:44;13.05;;;7.18;;
47762;SDS011;33526;42.690;23.322;2023-03-01T22:29:14;11.93;;;6.93;;
47762;SDS011;33526;42.690;23.322;2023-03-01T22:31:43;31.90;;;17.95;;
47762;SDS011;33526;42.690;23.322;2023-03-01T22:34:09;12.45;;;6.82;;
47762;SDS011;33526;42.690;23.322;2023-03-01T22:36:35;10.07;;;6.13;;
47762;SDS011;33526;42.690;23.322;2023-03-01T22:39:03;11.00;;;6.30;;
47762;SDS011;33526;42.690;23.322;2023-03-01T22:41:31;12.93;;;7.32;;
47762;SDS011;33526;42.690;23.322;2023-03-01T22:44:12;10.13;;;5.43;;
47762;SDS011;33526;42.690;23.322;2023-03-01T22:46:43;9.70;;;5.97;;
47762;SDS011;33526;42.690;23.322;2023-03-01T22:49:09;10.73;;;6.40;;
47762;SDS011;33526;42.690;23.322;2023-03-01T22:51:40;15.80;;;7.80;;
47762;SDS011;33526;42.690;23.322;2023-03-01T22:54:11;70.43;;;35.45;;
47762;SDS011;33526;42.690;23.322;2023-03-01T22:56:40;13.73;;;6.80;;
47762;SDS011;33526;42.690;23.322;2023-03-01T22:59:09;12.75;;;6.18;;
47762;SDS011;33526;42.690;23.322;2023-03-01T23:01:37;12.50;;;6.82;;
47762;SDS011;33526;42.690;23.322;2023-03-01T23:04:04;10.85;;;5.68;;
47762;SDS011;33526;42.690;23.322;2023-03-01T23:15:57;9.23;;;5.65;;
47762;SDS011;33526;42.690;23.322;2023-03-01T23:18:40;12.15;;;6.13;;
47762;SDS011;33526;42.690;23.322;2023-03-01T23:21:23;11.15;;;5.70;;
47762;SDS011;33526;42.690;23.322;2023-03-01T23:23:53;8.88;;;5.38;;
